sensor_id;sensor_type;location;lat;lon;timestamp;pressure;altitude;pressure_sealevel;temperature;humidity
68654;BME280;55636;51.108;13.622;2023-08-21T00:00:47;100892.50;;;24.02;61.87
68654;BME280;55636;51.108;13.622;2023-08-21T00:01:50;100907.44;;;24.02;61.76
68654;BME280;55636;51.108;13.622;2023-08-21T00:02:52;100897.31;;;24.01;61.74
68654;BME280;55636;51.108;13.622;2023-08-21T00:03:55;100900.97;;;24.02;61.63
68654;BME280;55636;51.108;13.622;2023-08-21T00:04:58;100888.84;;;24.01;61.74
68654;BME280;55636;51.108;13.622;2023-08-21T00:06:00;100887.19;;;24.00;61.77
68654;BME280;55636;51.108;13.622;2023-08-21T00:07:02;100885.53;;;23.99;61.61
68654;BME280;55636;51.108;13.622;2023-08-21T00:08:05;100890.38;;;23.99;61.63
68654;BME280;55636;51.108;13.622;2023-08-21T00:09:07;100879.09;;;23.99;61.37
68654;BME280;55636;51.108;13.622;2023-08-21T00:10:10;100880.59;;;23.96;61.49
68654;BME280;55636;51.108;13.622;2023-08-21T00:11:15;100880.59;;;23.96;61.65
68654;BME280;55636;51.108;13.622;2023-08-21T00:12:17;100879.44;;;23.97;61.71
68654;BME280;55636;51.108;13.622;2023-08-21T00:13:20;100876.09;;;23.95;61.90
68654;BME280;55636;51.108;13.622;2023-08-21T00:14:22;100875.28;;;23.95;61.97
68654;BME280;55636;51.108;13.622;2023-08-21T00:15:24;100875.63;;;23.93;61.89
68654;BME280;55636;51.108;13.622;2023-08-21T00:16:27;100874.78;;;23.93;61.98
68654;BME280;55636;51.108;13.622;2023-08-21T00:17:31;100880.78;;;23.91;61.96
68654;BME280;55636;51.108;13.622;2023-08-21T00:18:33;100870.66;;;23.90;61.91
68654;BME280;55636;51.108;13.622;2023-08-21T00:19:35;100880.28;;;23.89;62.00
68654;BME280;55636;51.108;13.622;2023-08-21T00:20:38;100873.00;;;23.88;61.97
68654;BME280;55636;51.108;13.622;2023-08-21T00:21:41;100879.00;;;23.86;61.81
68654;BME280;55636;51.108;13.622;2023-08-21T00:22:44;100874.16;;;23.87;62.12
68654;BME280;55636;51.108;13.622;2023-08-21T00:23:46;100873.66;;;23.85;62.28
68654;BME280;55636;51.108;13.622;2023-08-21T00:24:49;100874.34;;;23.82;62.28
68654;BME280;55636;51.108;13.622;2023-08-21T00:25:51;100864.22;;;23.81;62.48
68654;BME280;55636;51.108;13.622;2023-08-21T00:26:54;100871.03;;;23.80;62.37
68654;BME280;55636;51.108;13.622;2023-08-21T00:27:56;100858.13;;;23.79;62.49
68654;BME280;55636;51.108;13.622;2023-08-21T00:28:59;100865.75;;;23.78;62.22
68654;BME280;55636;51.108;13.622;2023-08-21T00:30:01;100862.09;;;23.78;62.36
68654;BME280;55636;51.108;13.622;2023-08-21T00:31:05;100863.25;;;23.77;62.26
68654;BME280;55636;51.108;13.622;2023-08-21T00:32:07;100863.25;;;23.77;62.45
68654;BME280;55636;51.108;13.622;2023-08-21T00:33:11;100857.97;;;23.75;62.65
68654;BME280;55636;51.108;13.622;2023-08-21T00:34:13;100858.31;;;23.74;62.60
68654;BME280;55636;51.108;13.622;2023-08-21T00:35:16;100852.97;;;23.72;62.66
68654;BME280;55636;51.108;13.622;2023-08-21T00:36:18;100855.00;;;23.71;62.64
68654;BME280;55636;51.108;13.622;2023-08-21T00:37:22;100849.69;;;23.70;62.91
68654;BME280;55636;51.108;13.622;2023-08-21T00:38:24;100858.16;;;23.70;62.84
68654;BME280;55636;51.108;13.622;2023-08-21T00:39:27;100847.53;;;23.67;62.94
68654;BME280;55636;51.108;13.622;2023-08-21T00:40:31;100856.00;;;23.67;62.91
68654;BME280;55636;51.108;13.622;2023-08-21T00:41:35;100845.91;;;23.66;62.88
68654;BME280;55636;51.108;13.622;2023-08-21T00:42:37;100859.16;;;23.65;62.92
68654;BME280;55636;51.108;13.622;2023-08-21T00:43:40;100853.84;;;23.64;62.96
68654;BME280;55636;51.108;13.622;2023-08-21T00:44:42;100851.38;;;23.62;62.93
68654;BME280;55636;51.108;13.622;2023-08-21T00:45:46;100854.03;;;23.59;63.35
68654;BME280;55636;51.108;13.622;2023-08-21T00:46:49;100859.22;;;23.57;63.64
68654;BME280;55636;51.108;13.622;2023-08-21T00:47:51;100855.06;;;23.54;63.81
68654;BME280;55636;51.108;13.622;2023-08-21T00:48:54;100851.75;;;23.52;63.81
68654;BME280;55636;51.108;13.622;2023-08-21T00:49:57;100854.88;;;23.50;63.83
68654;BME280;55636;51.108;13.622;2023-08-21T00:51:00;100856.03;;;23.49;63.95
68654;BME280;55636;51.108;13.622;2023-08-21T00:52:03;100860.00;;;23.48;64.08
68654;BME280;55636;51.108;13.622;2023-08-21T00:53:05;100861.16;;;23.47;63.51
68654;BME280;55636;51.108;13.622;2023-08-21T00:54:09;100849.44;;;23.45;63.85
68654;BME280;55636;51.108;13.622;2023-08-21T00:55:12;100856.72;;;23.46;63.83
68654;BME280;55636;51.108;13.622;2023-08-21T00:56:15;100858.69;;;23.46;64.01
68654;BME280;55636;51.108;13.622;2023-08-21T00:57:18;100853.41;;;23.44;63.89
68654;BME280;55636;51.108;13.622;2023-08-21T00:58:21;100852.59;;;23.44;63.66
68654;BME280;55636;51.108;13.622;2023-08-21T00:59:24;100859.03;;;23.44;63.80
68654;BME280;55636;51.108;13.622;2023-08-21T01:00:27;100855.75;;;23.42;63.97
68654;BME280;55636;51.108;13.622;2023-08-21T01:01:29;100856.91;;;23.41;64.23
68654;BME280;55636;51.108;13.622;2023-08-21T01:02:32;100853.59;;;23.39;63.97
68654;BME280;55636;51.108;13.622;2023-08-21T01:03:35;100854.44;;;23.40;63.79
68654;BME280;55636;51.108;13.622;2023-08-21T01:04:37;100862.03;;;23.39;63.84
68654;BME280;55636;51.108;13.622;2023-08-21T01:05:40;100860.38;;;23.38;63.97
68654;BME280;55636;51.108;13.622;2023-08-21T01:06:42;100862.38;;;23.37;64.15
68654;BME280;55636;51.108;13.622;2023-08-21T01:07:51;100860.72;;;23.36;64.34
68654;BME280;55636;51.108;13.622;2023-08-21T01:10:09;100862.72;;;23.36;64.11
68654;BME280;55636;51.108;13.622;2023-08-21T01:11:37;100866.34;;;23.36;63.92
68654;BME280;55636;51.108;13.622;2023-08-21T01:12:50;100872.00;;;23.36;64.15
68654;BME280;55636;51.108;13.622;2023-08-21T01:15:24;100870.34;;;23.35;64.45
68654;BME280;55636;51.108;13.622;2023-08-21T01:16:27;100875.66;;;23.37;64.07
68654;BME280;55636;51.108;13.622;2023-08-21T01:17:33;100870.34;;;23.35;64.30
68654;BME280;55636;51.108;13.622;2023-08-21T01:18:37;100878.78;;;23.35;64.25
68654;BME280;55636;51.108;13.622;2023-08-21T01:19:42;100872.34;;;23.35;64.30
68654;BME280;55636;51.108;13.622;2023-08-21T01:20:45;100873.16;;;23.35;64.18
68654;BME280;55636;51.108;13.622;2023-08-21T01:21:48;100877.97;;;23.35;64.37
68654;BME280;55636;51.108;13.622;2023-08-21T01:22:50;100881.59;;;23.35;64.39
68654;BME280;55636;51.108;13.622;2023-08-21T01:23:53;100884.44;;;23.35;64.33
68654;BME280;55636;51.108;13.622;2023-08-21T01:24:55;100877.63;;;23.36;64.34
68654;BME280;55636;51.108;13.622;2023-08-21T01:25:58;100870.03;;;23.37;64.26
68654;BME280;55636;51.108;13.622;2023-08-21T01:27:00;100868.84;;;23.38;64.50
68654;BME280;55636;51.108;13.622;2023-08-21T01:28:03;100870.03;;;23.37;64.28
68654;BME280;55636;51.108;13.622;2023-08-21T01:29:05;100866.00;;;23.38;64.51
68654;BME280;55636;51.108;13.622;2023-08-21T01:30:10;100856.75;;;23.37;64.40
68654;BME280;55636;51.108;13.622;2023-08-21T01:31:21;100851.09;;;23.37;64.27
68654;BME280;55636;51.108;13.622;2023-08-21T01:32:45;100846.63;;;23.36;63.90
68654;BME280;55636;51.108;13.622;2023-08-21T01:33:54;100849.44;;;23.36;64.18
68654;BME280;55636;51.108;13.622;2023-08-21T01:34:58;100851.09;;;23.37;63.96
68654;BME280;55636;51.108;13.622;2023-08-21T01:36:03;100860.38;;;23.38;64.15
68654;BME280;55636;51.108;13.622;2023-08-21T01:37:07;100856.75;;;23.37;64.31
68654;BME280;55636;51.108;13.622;2023-08-21T01:38:10;100864.03;;;23.38;64.23
68654;BME280;55636;51.108;13.622;2023-08-21T01:39:13;100852.75;;;23.38;64.36
68654;BME280;55636;51.108;13.622;2023-08-21T01:40:24;100857.56;;;23.38;64.20
68654;BME280;55636;51.108;13.622;2023-08-21T01:41:27;100855.59;;;23.38;64.29
68654;BME280;55636;51.108;13.622;2023-08-21T01:42:29;100852.75;;;23.38;64.44
68654;BME280;55636;51.108;13.622;2023-08-21T01:43:32;100853.94;;;23.37;64.53
68654;BME280;55636;51.108;13.622;2023-08-21T01:44:34;100854.75;;;23.38;64.53
68654;BME280;55636;51.108;13.622;2023-08-21T01:45:37;100851.91;;;23.38;64.45
68654;BME280;55636;51.108;13.622;2023-08-21T01:46:40;100849.09;;;23.38;64.58
68654;BME280;55636;51.108;13.622;2023-08-21T01:47:43;100845.47;;;23.37;64.49
68654;BME280;55636;51.108;13.622;2023-08-21T01:48:45;100847.13;;;23.38;64.44
68654;BME280;55636;51.108;13.622;2023-08-21T01:49:48;100845.97;;;23.40;64.54
68654;BME280;55636;51.108;13.622;2023-08-21T01:50:54;100847.13;;;23.38;64.43
68654;BME280;55636;51.108;13.622;2023-08-21T01:51:56;100850.75;;;23.39;64.55
68654;BME280;55636;51.108;13.622;2023-08-21T01:53:00;100853.59;;;23.39;64.41
68654;BME280;55636;51.108;13.622;2023-08-21T01:54:02;100858.06;;;23.40;64.58
68654;BME280;55636;51.108;13.622;2023-08-21T01:55:05;100849.59;;;23.40;64.47
68654;BME280;55636;51.108;13.622;2023-08-21T01:56:10;100855.25;;;23.40;64.56
68654;BME280;55636;51.108;13.622;2023-08-21T01:57:12;100850.41;;;23.41;64.86
68654;BME280;55636;51.108;13.622;2023-08-21T01:58:15;100847.59;;;23.41;64.56
68654;BME280;55636;51.108;13.622;2023-08-21T01:59:17;100847.59;;;23.41;64.20
68654;BME280;55636;51.108;13.622;2023-08-21T02:00:20;100843.97;;;23.40;64.35
68654;BME280;55636;51.108;13.622;2023-08-21T02:01:22;100851.59;;;23.40;64.71
68654;BME280;55636;51.108;13.622;2023-08-21T02:02:25;100851.59;;;23.40;64.77
68654;BME280;55636;51.108;13.622;2023-08-21T02:03:28;100859.22;;;23.39;64.57
68654;BME280;55636;51.108;13.622;2023-08-21T02:04:30;100853.59;;;23.39;64.34
68654;BME280;55636;51.108;13.622;2023-08-21T02:05:38;100859.22;;;23.39;64.28
68654;BME280;55636;51.108;13.622;2023-08-21T02:06:42;100854.75;;;23.38;64.25
68654;BME280;55636;51.108;13.622;2023-08-21T02:07:46;100862.03;;;23.39;64.54
68654;BME280;55636;51.108;13.622;2023-08-21T02:08:49;100862.03;;;23.39;64.16
68654;BME280;55636;51.108;13.622;2023-08-21T02:09:52;100860.38;;;23.38;64.59
68654;BME280;55636;51.108;13.622;2023-08-21T02:10:54;100862.03;;;23.39;64.41
68654;BME280;55636;51.108;13.622;2023-08-21T02:11:57;100859.56;;;23.37;64.57
68654;BME280;55636;51.108;13.622;2023-08-21T02:12:59;100854.75;;;23.38;64.27
68654;BME280;55636;51.108;13.622;2023-08-21T02:14:02;100851.91;;;23.38;64.25
68654;BME280;55636;51.108;13.622;2023-08-21T02:15:05;100849.09;;;23.38;64.23
68654;BME280;55636;51.108;13.622;2023-08-21T02:16:08;100851.91;;;23.38;64.16
68654;BME280;55636;51.108;13.622;2023-08-21T02:17:10;100855.94;;;23.37;64.09
68654;BME280;55636;51.108;13.622;2023-08-21T02:18:12;100848.13;;;23.34;64.69
68654;BME280;55636;51.108;13.622;2023-08-21T02:19:15;100845.31;;;23.34;64.51
68654;BME280;55636;51.108;13.622;2023-08-21T02:20:18;100840.00;;;23.32;64.54
68654;BME280;55636;51.108;13.622;2023-08-21T02:21:21;100847.66;;;23.32;64.22
68654;BME280;55636;51.108;13.622;2023-08-21T02:22:23;100847.97;;;23.30;64.74
68654;BME280;55636;51.108;13.622;2023-08-21T02:23:25;100849.16;;;23.29;64.60
68654;BME280;55636;51.108;13.622;2023-08-21T02:24:28;100853.13;;;23.28;64.63
68654;BME280;55636;51.108;13.622;2023-08-21T02:25:31;100847.00;;;23.26;64.54
68654;BME280;55636;51.108;13.622;2023-08-21T02:26:34;100841.69;;;23.25;64.45
68654;BME280;55636;51.108;13.622;2023-08-21T02:27:37;100843.69;;;23.24;64.65
68654;BME280;55636;51.108;13.622;2023-08-21T02:28:40;100844.84;;;23.23;64.86
68654;BME280;55636;51.108;13.622;2023-08-21T02:29:42;100850.47;;;23.23;64.73
68654;BME280;55636;51.108;13.622;2023-08-21T02:30:45;100843.19;;;23.22;64.53
68654;BME280;55636;51.108;13.622;2023-08-21T02:31:47;100845.19;;;23.21;64.50
68654;BME280;55636;51.108;13.622;2023-08-21T02:32:49;100842.38;;;23.21;64.60
68654;BME280;55636;51.108;13.622;2023-08-21T02:33:52;100840.72;;;23.20;64.48
68654;BME280;55636;51.108;13.622;2023-08-21T02:34:54;100845.53;;;23.20;64.39
68654;BME280;55636;51.108;13.622;2023-08-21T02:35:57;100842.72;;;23.20;64.48
68654;BME280;55636;51.108;13.622;2023-08-21T02:36:59;100849.50;;;23.19;64.29
68654;BME280;55636;51.108;13.622;2023-08-21T02:38:02;100851.81;;;23.17;64.44
68654;BME280;55636;51.108;13.622;2023-08-21T02:39:05;100849.00;;;23.17;64.45
68654;BME280;55636;51.108;13.622;2023-08-21T02:40:07;100851.00;;;23.16;64.92
68654;BME280;55636;51.108;13.622;2023-08-21T02:41:10;100852.97;;;23.16;64.60
68654;BME280;55636;51.108;13.622;2023-08-21T02:42:13;100843.38;;;23.17;64.84
68654;BME280;55636;51.108;13.622;2023-08-21T02:43:15;100844.53;;;23.16;64.89
68654;BME280;55636;51.108;13.622;2023-08-21T02:44:18;100836.06;;;23.16;64.79
68654;BME280;55636;51.108;13.622;2023-08-21T02:45:22;100833.59;;;23.14;64.75
68654;BME280;55636;51.108;13.622;2023-08-21T02:46:24;100836.41;;;23.14;64.60
68654;BME280;55636;51.108;13.622;2023-08-21T02:47:27;100837.25;;;23.15;64.40
68654;BME280;55636;51.108;13.622;2023-08-21T02:48:31;100846.03;;;23.13;64.64
68654;BME280;55636;51.108;13.622;2023-08-21T02:49:35;100842.38;;;23.13;64.75
68654;BME280;55636;51.108;13.622;2023-08-21T02:50:37;100851.19;;;23.11;64.72
68654;BME280;55636;51.108;13.622;2023-08-21T02:51:40;100846.69;;;23.10;64.80
68654;BME280;55636;51.108;13.622;2023-08-21T02:52:42;100853.50;;;23.09;65.15
68654;BME280;55636;51.108;13.622;2023-08-21T02:53:45;100855.97;;;23.11;64.64
68654;BME280;55636;51.108;13.622;2023-08-21T02:54:48;100855.50;;;23.09;64.91
68654;BME280;55636;51.108;13.622;2023-08-21T02:55:50;100853.84;;;23.08;64.94
68654;BME280;55636;51.108;13.622;2023-08-21T02:56:52;100859.47;;;23.08;64.92
68654;BME280;55636;51.108;13.622;2023-08-21T02:57:55;100854.16;;;23.06;64.79
68654;BME280;55636;51.108;13.622;2023-08-21T02:58:57;100850.50;;;23.05;64.84
68654;BME280;55636;51.108;13.622;2023-08-21T03:00:00;100848.53;;;23.06;64.86
68654;BME280;55636;51.108;13.622;2023-08-21T03:01:02;100848.03;;;23.04;65.00
68654;BME280;55636;51.108;13.622;2023-08-21T03:02:05;100860.47;;;23.03;65.00
68654;BME280;55636;51.108;13.622;2023-08-21T03:03:07;100865.28;;;23.02;64.92
68654;BME280;55636;51.108;13.622;2023-08-21T03:04:10;100855.16;;;23.01;64.78
68654;BME280;55636;51.108;13.622;2023-08-21T03:05:12;100864.47;;;23.02;64.63
68654;BME280;55636;51.108;13.622;2023-08-21T03:06:16;100851.53;;;23.01;64.92
68654;BME280;55636;51.108;13.622;2023-08-21T03:07:19;100856.31;;;23.00;64.82
68654;BME280;55636;51.108;13.622;2023-08-21T03:08:21;100857.50;;;22.99;64.79
68654;BME280;55636;51.108;13.622;2023-08-21T03:09:23;100862.28;;;22.99;64.46
68654;BME280;55636;51.108;13.622;2023-08-21T03:10:26;100855.84;;;22.98;64.75
68654;BME280;55636;51.108;13.622;2023-08-21T03:11:30;100857.81;;;22.98;64.77
68654;BME280;55636;51.108;13.622;2023-08-21T03:12:33;100862.63;;;22.97;64.74
68654;BME280;55636;51.108;13.622;2023-08-21T03:13:35;100866.25;;;22.98;64.76
68654;BME280;55636;51.108;13.622;2023-08-21T03:14:38;100859.00;;;22.97;64.51
68654;BME280;55636;51.108;13.622;2023-08-21T03:15:40;100867.44;;;22.97;64.82
68654;BME280;55636;51.108;13.622;2023-08-21T03:16:43;100868.59;;;22.96;64.93
68654;BME280;55636;51.108;13.622;2023-08-21T03:17:46;100860.16;;;22.96;64.66
68654;BME280;55636;51.108;13.622;2023-08-21T03:18:56;100864.13;;;22.95;64.76
68654;BME280;55636;51.108;13.622;2023-08-21T03:20:01;100865.28;;;22.94;64.90
68654;BME280;55636;51.108;13.622;2023-08-21T03:21:06;100860.50;;;22.94;64.66
68654;BME280;55636;51.108;13.622;2023-08-21T03:22:09;100863.31;;;22.94;64.74
68654;BME280;55636;51.108;13.622;2023-08-21T03:23:12;100848.72;;;22.92;64.86
68654;BME280;55636;51.108;13.622;2023-08-21T03:24:15;100864.47;;;22.93;64.81
68654;BME280;55636;51.108;13.622;2023-08-21T03:25:18;100858.00;;;22.93;64.85
68654;BME280;55636;51.108;13.622;2023-08-21T03:26:20;100860.81;;;22.93;64.90
68654;BME280;55636;51.108;13.622;2023-08-21T03:27:24;100859.16;;;22.92;64.67
68654;BME280;55636;51.108;13.622;2023-08-21T03:28:27;100863.94;;;22.91;64.77
68654;BME280;55636;51.108;13.622;2023-08-21T03:29:29;100863.13;;;22.91;64.78
68654;BME280;55636;51.108;13.622;2023-08-21T03:30:31;100865.13;;;22.90;64.70
68654;BME280;55636;51.108;13.622;2023-08-21T03:31:34;100864.28;;;22.89;64.71
68654;BME280;55636;51.108;13.622;2023-08-21T03:32:37;100860.66;;;22.89;64.78
68654;BME280;55636;51.108;13.622;2023-08-21T03:33:40;100869.44;;;22.87;64.82
68654;BME280;55636;51.108;13.622;2023-08-21T03:34:43;100867.44;;;22.88;64.68
68654;BME280;55636;51.108;13.622;2023-08-21T03:35:46;100869.44;;;22.87;64.81
68654;BME280;55636;51.108;13.622;2023-08-21T03:36:48;100863.81;;;22.87;64.52
68654;BME280;55636;51.108;13.622;2023-08-21T03:37:52;100864.97;;;22.86;64.97
68654;BME280;55636;51.108;13.622;2023-08-21T03:38:54;100866.94;;;22.86;64.44
68654;BME280;55636;51.108;13.622;2023-08-21T03:39:57;100866.94;;;22.86;64.56
68654;BME280;55636;51.108;13.622;2023-08-21T03:41:00;100866.94;;;22.86;64.70
68654;BME280;55636;51.108;13.622;2023-08-21T03:42:03;100873.22;;;22.83;64.50
68654;BME280;55636;51.108;13.622;2023-08-21T03:43:05;100864.75;;;22.83;64.25
68654;BME280;55636;51.108;13.622;2023-08-21T03:44:08;100865.91;;;22.82;64.38
68654;BME280;55636;51.108;13.622;2023-08-21T03:45:10;100862.28;;;22.81;64.27
68654;BME280;55636;51.108;13.622;2023-08-21T03:46:13;100862.28;;;22.81;64.38
68654;BME280;55636;51.108;13.622;2023-08-21T03:47:16;100862.63;;;22.80;64.40
68654;BME280;55636;51.108;13.622;2023-08-21T03:48:27;100860.97;;;22.79;64.58
68654;BME280;55636;51.108;13.622;2023-08-21T03:49:29;100859.28;;;22.78;64.33
68654;BME280;55636;51.108;13.622;2023-08-21T03:50:33;100861.28;;;22.77;64.32
68654;BME280;55636;51.108;13.622;2023-08-21T03:51:35;100870.91;;;22.76;64.30
68654;BME280;55636;51.108;13.622;2023-08-21T03:52:37;100871.72;;;22.77;63.96
68654;BME280;55636;51.108;13.622;2023-08-21T03:53:40;100866.41;;;22.75;64.21
68654;BME280;55636;51.108;13.622;2023-08-21T03:54:43;100860.78;;;22.75;64.17
68654;BME280;55636;51.108;13.622;2023-08-21T03:55:45;100862.78;;;22.75;64.18
68654;BME280;55636;51.108;13.622;2023-08-21T03:56:47;100868.75;;;22.73;63.98
68654;BME280;55636;51.108;13.622;2023-08-21T03:57:50;100864.28;;;22.72;64.13
68654;BME280;55636;51.108;13.622;2023-08-21T03:58:52;100867.09;;;22.72;64.28
68654;BME280;55636;51.108;13.622;2023-08-21T03:59:55;100863.44;;;22.71;63.94
68654;BME280;55636;51.108;13.622;2023-08-21T04:00:59;100869.41;;;22.70;63.83
68654;BME280;55636;51.108;13.622;2023-08-21T04:02:01;100865.78;;;22.69;63.71
68654;BME280;55636;51.108;13.622;2023-08-21T04:03:04;100869.75;;;22.68;63.92
68654;BME280;55636;51.108;13.622;2023-08-21T04:04:06;100868.94;;;22.68;64.07
68654;BME280;55636;51.108;13.622;2023-08-21T04:05:09;100872.03;;;22.66;63.74
68654;BME280;55636;51.108;13.622;2023-08-21T04:06:13;100867.59;;;22.65;63.70
68654;BME280;55636;51.108;13.622;2023-08-21T04:07:15;100871.22;;;22.66;63.96
68654;BME280;55636;51.108;13.622;2023-08-21T04:08:18;100872.38;;;22.65;63.61
68654;BME280;55636;51.108;13.622;2023-08-21T04:09:20;100875.53;;;22.63;63.65
68654;BME280;55636;51.108;13.622;2023-08-21T04:10:22;100869.91;;;22.63;63.78
68654;BME280;55636;51.108;13.622;2023-08-21T04:11:25;100874.72;;;22.63;63.48
68654;BME280;55636;51.108;13.622;2023-08-21T04:12:27;100877.84;;;22.61;63.64
68654;BME280;55636;51.108;13.622;2023-08-21T04:13:30;100871.41;;;22.61;63.78
68654;BME280;55636;51.108;13.622;2023-08-21T04:14:32;100873.38;;;22.60;63.60
68654;BME280;55636;51.108;13.622;2023-08-21T04:15:34;100875.34;;;22.60;63.46
68654;BME280;55636;51.108;13.622;2023-08-21T04:16:39;100869.25;;;22.58;63.61
68654;BME280;55636;51.108;13.622;2023-08-21T04:17:41;100872.06;;;22.58;63.39
68654;BME280;55636;51.108;13.622;2023-08-21T04:18:43;100872.38;;;22.56;63.27
68654;BME280;55636;51.108;13.622;2023-08-21T04:19:46;100873.56;;;22.55;63.21
68654;BME280;55636;51.108;13.622;2023-08-21T04:20:48;100874.38;;;22.55;63.78
68654;BME280;55636;51.108;13.622;2023-08-21T04:21:51;100873.03;;;22.53;63.73
68654;BME280;55636;51.108;13.622;2023-08-21T04:22:53;100877.84;;;22.52;63.40
68654;BME280;55636;51.108;13.622;2023-08-21T04:23:55;100870.91;;;22.50;63.26
68654;BME280;55636;51.108;13.622;2023-08-21T04:24:59;100872.06;;;22.49;63.29
68654;BME280;55636;51.108;13.622;2023-08-21T04:26:03;100878.00;;;22.47;63.40
68654;BME280;55636;51.108;13.622;2023-08-21T04:27:05;100877.50;;;22.45;63.49
68654;BME280;55636;51.108;13.622;2023-08-21T04:28:08;100877.50;;;22.45;63.33
68654;BME280;55636;51.108;13.622;2023-08-21T04:29:13;100870.53;;;22.43;63.60
68654;BME280;55636;51.108;13.622;2023-08-21T04:30:16;100867.72;;;22.43;63.51
68654;BME280;55636;51.108;13.622;2023-08-21T04:31:18;100870.88;;;22.41;63.66
68654;BME280;55636;51.108;13.622;2023-08-21T04:32:23;100874.03;;;22.39;63.36
68654;BME280;55636;51.108;13.622;2023-08-21T04:33:27;100876.00;;;22.39;63.60
68654;BME280;55636;51.108;13.622;2023-08-21T04:34:29;100872.38;;;22.38;63.98
68654;BME280;55636;51.108;13.622;2023-08-21T04:35:39;100875.50;;;22.37;64.11
68654;BME280;55636;51.108;13.622;2023-08-21T04:36:41;100873.84;;;22.36;63.92
68654;BME280;55636;51.108;13.622;2023-08-21T04:37:47;100873.34;;;22.34;63.81
68654;BME280;55636;51.108;13.622;2023-08-21T04:38:51;100877.00;;;22.34;63.86
68654;BME280;55636;51.108;13.622;2023-08-21T04:39:55;100878.16;;;22.33;63.92
68654;BME280;55636;51.108;13.622;2023-08-21T04:41:08;100880.16;;;22.33;63.90
68654;BME280;55636;51.108;13.622;2023-08-21T04:42:14;100873.66;;;22.32;64.29
68654;BME280;55636;51.108;13.622;2023-08-21T04:43:17;100873.66;;;22.32;64.10
68654;BME280;55636;51.108;13.622;2023-08-21T04:44:21;100872.00;;;22.31;64.13
68654;BME280;55636;51.108;13.622;2023-08-21T04:45:23;100871.19;;;22.31;64.09
68654;BME280;55636;51.108;13.622;2023-08-21T04:46:26;100876.81;;;22.31;64.15
68654;BME280;55636;51.108;13.622;2023-08-21T04:47:29;100866.72;;;22.30;64.38
68654;BME280;55636;51.108;13.622;2023-08-21T04:48:33;100873.19;;;22.30;64.48
68654;BME280;55636;51.108;13.622;2023-08-21T04:49:36;100873.19;;;22.30;64.42
68654;BME280;55636;51.108;13.622;2023-08-21T04:50:39;100876.81;;;22.31;64.83
68654;BME280;55636;51.108;13.622;2023-08-21T04:51:41;100878.47;;;22.32;64.90
68654;BME280;55636;51.108;13.622;2023-08-21T04:52:43;100877.00;;;22.34;65.38
68654;BME280;55636;51.108;13.622;2023-08-21T04:53:46;100883.44;;;22.35;64.98
68654;BME280;55636;51.108;13.622;2023-08-21T04:54:53;100880.28;;;22.36;64.97
68654;BME280;55636;51.108;13.622;2023-08-21T04:55:58;100881.63;;;22.39;64.77
68654;BME280;55636;51.108;13.622;2023-08-21T04:57:02;100886.09;;;22.40;64.93
68654;BME280;55636;51.108;13.622;2023-08-21T04:58:06;100880.13;;;22.42;64.65
68654;BME280;55636;51.108;13.622;2023-08-21T04:59:08;100878.16;;;22.42;64.31
68654;BME280;55636;51.108;13.622;2023-08-21T05:00:11;100881.97;;;22.46;64.48
68654;BME280;55636;51.108;13.622;2023-08-21T05:01:16;100887.28;;;22.48;64.66
68654;BME280;55636;51.108;13.622;2023-08-21T05:02:22;100881.00;;;22.51;64.63
68654;BME280;55636;51.108;13.622;2023-08-21T05:03:26;100878.00;;;22.56;64.26
68654;BME280;55636;51.108;13.622;2023-08-21T05:04:28;100883.81;;;22.60;64.39
68654;BME280;55636;51.108;13.622;2023-08-21T05:05:31;100883.16;;;22.63;64.66
68654;BME280;55636;51.108;13.622;2023-08-21T05:06:34;100871.22;;;22.66;64.32
68654;BME280;55636;51.108;13.622;2023-08-21T05:07:37;100880.66;;;22.70;64.16
68654;BME280;55636;51.108;13.622;2023-08-21T05:08:39;100886.13;;;22.75;64.06
68654;BME280;55636;51.108;13.622;2023-08-21T05:09:43;100885.97;;;22.80;63.92
68654;BME280;55636;51.108;13.622;2023-08-21T05:10:47;100885.03;;;22.85;63.88
68654;BME280;55636;51.108;13.622;2023-08-21T05:11:50;100880.03;;;22.91;63.78
68654;BME280;55636;51.108;13.622;2023-08-21T05:12:53;100890.31;;;22.95;63.83
68654;BME280;55636;51.108;13.622;2023-08-21T05:13:55;100880.03;;;22.99;63.70
68654;BME280;55636;51.108;13.622;2023-08-21T05:14:58;100891.28;;;23.08;63.41
68654;BME280;55636;51.108;13.622;2023-08-21T05:16:01;100889.47;;;23.12;63.24
68654;BME280;55636;51.108;13.622;2023-08-21T05:17:08;100888.97;;;23.19;63.29
68654;BME280;55636;51.108;13.622;2023-08-21T05:18:11;100892.06;;;23.26;63.08
68654;BME280;55636;51.108;13.622;2023-08-21T05:19:13;100891.09;;;23.31;63.02
68654;BME280;55636;51.108;13.622;2023-08-21T05:20:16;100892.22;;;23.38;62.77
68654;BME280;55636;51.108;13.622;2023-08-21T05:21:18;100894.53;;;23.45;62.60
68654;BME280;55636;51.108;13.622;2023-08-21T05:22:21;100899.34;;;23.53;63.02
68654;BME280;55636;51.108;13.622;2023-08-21T05:23:24;100893.16;;;23.60;62.41
68654;BME280;55636;51.108;13.622;2023-08-21T05:24:30;100894.31;;;23.68;61.93
68654;BME280;55636;51.108;13.622;2023-08-21T05:25:37;100901.94;;;23.76;61.93
68654;BME280;55636;51.108;13.622;2023-08-21T05:26:42;100899.03;;;23.85;62.21
68654;BME280;55636;51.108;13.622;2023-08-21T05:27:44;100900.19;;;23.93;61.65
68654;BME280;55636;51.108;13.622;2023-08-21T05:28:47;100902.97;;;24.01;61.48
68654;BME280;55636;51.108;13.622;2023-08-21T05:29:49;100903.28;;;24.09;61.29